sensor_id;sensor_type;location;lat;lon;timestamp;P1;durP1;ratioP1;P2;durP2;ratioP2
75459;SDS011;64039;53.060;9.342;2022-12-18T00:01:18;18.33;;;8.50;;
75459;SDS011;64039;53.060;9.342;2022-12-18T00:03:47;17.30;;;8.38;;
75459;SDS011;64039;53.060;9.342;2022-12-18T00:06:13;16.65;;;7.53;;
75459;SDS011;64039;53.060;9.342;2022-12-18T00:08:40;22.13;;;8.85;;
75459;SDS011;64039;53.060;9.342;2022-12-18T00:11:07;20.83;;;8.48;;
75459;SDS011;64039;53.060;9.342;2022-12-18T00:13:34;17.48;;;8.50;;
75459;SDS011;64039;53.060;9.342;2022-12-18T00:16:04;19.13;;;8.02;;
75459;SDS011;64039;53.060;9.342;2022-12-18T00:18:31;13.13;;;7.43;;
75459;SDS011;64039;53.060;9.342;2022-12-18T00:21:00;19.15;;;7.90;;
75459;SDS011;64039;53.060;9.342;2022-12-18T00:23:28;15.00;;;7.65;;
75459;SDS011;64039;53.060;9.342;2022-12-18T00:25:54;18.33;;;8.30;;
75459;SDS011;64039;53.060;9.342;2022-12-18T00:28:20;15.35;;;7.55;;
75459;SDS011;64039;53.060;9.342;2022-12-18T00:30:45;16.63;;;7.93;;
75459;SDS011;64039;53.060;9.342;2022-12-18T00:33:11;18.02;;;7.80;;
75459;SDS011;64039;53.060;9.342;2022-12-18T00:35:36;18.00;;;8.30;;
75459;SDS011;64039;53.060;9.342;2022-12-18T00:38:02;17.52;;;8.13;;
75459;SDS011;64039;53.060;9.342;2022-12-18T00:40:27;18.48;;;7.75;;
75459;SDS011;64039;53.060;9.342;2022-12-18T00:42:53;16.92;;;7.55;;
75459;SDS011;64039;53.060;9.342;2022-12-18T00:45:28;16.55;;;7.70;;
75459;SDS011;64039;53.060;9.342;2022-12-18T00:47:55;16.75;;;7.88;;
75459;SDS011;64039;53.060;9.342;2022-12-18T00:50:22;16.27;;;7.95;;
75459;SDS011;64039;53.060;9.342;2022-12-18T00:52:48;17.02;;;7.47;;
75459;SDS011;64039;53.060;9.342;2022-12-18T00:55:13;16.67;;;7.10;;
75459;SDS011;64039;53.060;9.342;2022-12-18T00:57:39;17.83;;;7.75;;
75459;SDS011;64039;53.060;9.342;2022-12-18T01:00:06;15.65;;;7.25;;
75459;SDS011;64039;53.060;9.342;2022-12-18T01:02:33;15.48;;;7.30;;
75459;SDS011;64039;53.060;9.342;2022-12-18T01:04:59;18.27;;;7.75;;
75459;SDS011;64039;53.060;9.342;2022-12-18T01:07:24;15.68;;;7.25;;
75459;SDS011;64039;53.060;9.342;2022-12-18T01:09:50;11.88;;;6.78;;
75459;SDS011;64039;53.060;9.342;2022-12-18T01:12:15;15.95;;;7.32;;
75459;SDS011;64039;53.060;9.342;2022-12-18T01:14:41;18.25;;;8.07;;
75459;SDS011;64039;53.060;9.342;2022-12-18T01:17:06;15.32;;;7.22;;
75459;SDS011;64039;53.060;9.342;2022-12-18T01:19:32;16.05;;;7.53;;
75459;SDS011;64039;53.060;9.342;2022-12-18T01:21:57;19.27;;;8.07;;
75459;SDS011;64039;53.060;9.342;2022-12-18T01:24:23;15.35;;;7.72;;
75459;SDS011;64039;53.060;9.342;2022-12-18T01:26:49;16.83;;;7.85;;
75459;SDS011;64039;53.060;9.342;2022-12-18T01:29:14;17.60;;;7.88;;
75459;SDS011;64039;53.060;9.342;2022-12-18T01:31:40;19.10;;;7.68;;
75459;SDS011;64039;53.060;9.342;2022-12-18T01:34:05;18.00;;;7.90;;
75459;SDS011;64039;53.060;9.342;2022-12-18T01:36:34;16.45;;;7.80;;
75459;SDS011;64039;53.060;9.342;2022-12-18T01:39:04;15.98;;;7.80;;
75459;SDS011;64039;53.060;9.342;2022-12-18T01:41:32;17.73;;;8.15;;
75459;SDS011;64039;53.060;9.342;2022-12-18T01:49:52;16.75;;;7.45;;
75459;SDS011;64039;53.060;9.342;2022-12-18T01:52:18;16.92;;;7.85;;
75459;SDS011;64039;53.060;9.342;2022-12-18T01:54:46;19.17;;;8.20;;
75459;SDS011;64039;53.060;9.342;2022-12-18T01:57:14;16.52;;;7.32;;
75459;SDS011;64039;53.060;9.342;2022-12-18T01:59:40;19.75;;;7.63;;
75459;SDS011;64039;53.060;9.342;2022-12-18T02:02:07;17.73;;;7.40;;
75459;SDS011;64039;53.060;9.342;2022-12-18T02:04:33;15.52;;;7.45;;
75459;SDS011;64039;53.060;9.342;2022-12-18T02:15:36;15.25;;;7.38;;
75459;SDS011;64039;53.060;9.342;2022-12-18T02:20:38;17.63;;;8.00;;
75459;SDS011;64039;53.060;9.342;2022-12-18T02:28:47;14.02;;;7.22;;
75459;SDS011;64039;53.060;9.342;2022-12-18T02:31:21;14.02;;;6.80;;
75459;SDS011;64039;53.060;9.342;2022-12-18T02:33:51;17.00;;;7.65;;
75459;SDS011;64039;53.060;9.342;2022-12-18T02:36:20;15.20;;;7.35;;
75459;SDS011;64039;53.060;9.342;2022-12-18T02:38:48;13.75;;;6.68;;
75459;SDS011;64039;53.060;9.342;2022-12-18T02:41:16;14.80;;;6.88;;
75459;SDS011;64039;53.060;9.342;2022-12-18T02:43:46;13.35;;;7.15;;
75459;SDS011;64039;53.060;9.342;2022-12-18T02:48:56;14.73;;;7.00;;
75459;SDS011;64039;53.060;9.342;2022-12-18T02:51:33;15.80;;;6.88;;
75459;SDS011;64039;53.060;9.342;2022-12-18T02:54:18;15.65;;;7.03;;
75459;SDS011;64039;53.060;9.342;2022-12-18T02:56:53;17.40;;;7.43;;
75459;SDS011;64039;53.060;9.342;2022-12-18T02:59:23;15.35;;;7.43;;
75459;SDS011;64039;53.060;9.342;2022-12-18T03:01:59;14.50;;;7.22;;
75459;SDS011;64039;53.060;9.342;2022-12-18T03:04:36;14.25;;;6.75;;
75459;SDS011;64039;53.060;9.342;2022-12-18T03:07:38;15.52;;;7.15;;
75459;SDS011;64039;53.060;9.342;2022-12-18T03:10:07;12.77;;;6.13;;
75459;SDS011;64039;53.060;9.342;2022-12-18T03:12:40;15.07;;;6.83;;
75459;SDS011;64039;53.060;9.342;2022-12-18T03:17:43;15.98;;;7.30;;
75459;SDS011;64039;53.060;9.342;2022-12-18T03:20:31;17.00;;;7.15;;
75459;SDS011;64039;53.060;9.342;2022-12-18T03:23:00;14.95;;;6.55;;
75459;SDS011;64039;53.060;9.342;2022-12-18T03:25:33;13.00;;;6.35;;
75459;SDS011;64039;53.060;9.342;2022-12-18T03:28:04;16.85;;;7.15;;
75459;SDS011;64039;53.060;9.342;2022-12-18T03:30:35;18.38;;;6.78;;
75459;SDS011;64039;53.060;9.342;2022-12-18T03:36:04;16.10;;;6.30;;
75459;SDS011;64039;53.060;9.342;2022-12-18T03:38:30;15.75;;;7.05;;
75459;SDS011;64039;53.060;9.342;2022-12-18T03:46:11;16.80;;;7.38;;
75459;SDS011;64039;53.060;9.342;2022-12-18T03:48:47;14.45;;;6.68;;
75459;SDS011;64039;53.060;9.342;2022-12-18T03:51:34;14.63;;;6.60;;
75459;SDS011;64039;53.060;9.342;2022-12-18T03:54:04;17.23;;;7.07;;
75459;SDS011;64039;53.060;9.342;2022-12-18T03:56:36;15.80;;;6.32;;
75459;SDS011;64039;53.060;9.342;2022-12-18T03:59:06;17.85;;;8.15;;
75459;SDS011;64039;53.060;9.342;2022-12-18T04:01:35;15.00;;;7.07;;
75459;SDS011;64039;53.060;9.342;2022-12-18T04:04:04;12.48;;;6.18;;
75459;SDS011;64039;53.060;9.342;2022-12-18T04:06:32;13.82;;;7.25;;
75459;SDS011;64039;53.060;9.342;2022-12-18T04:09:00;15.40;;;7.45;;
75459;SDS011;64039;53.060;9.342;2022-12-18T04:11:25;15.73;;;7.70;;
75459;SDS011;64039;53.060;9.342;2022-12-18T04:13:54;15.05;;;6.93;;
75459;SDS011;64039;53.060;9.342;2022-12-18T04:16:22;13.80;;;6.35;;
75459;SDS011;64039;53.060;9.342;2022-12-18T04:18:48;14.52;;;6.40;;
75459;SDS011;64039;53.060;9.342;2022-12-18T04:21:14;15.50;;;6.55;;
75459;SDS011;64039;53.060;9.342;2022-12-18T04:23:39;14.75;;;6.28;;
75459;SDS011;64039;53.060;9.342;2022-12-18T04:26:05;18.08;;;6.45;;
75459;SDS011;64039;53.060;9.342;2022-12-18T04:28:30;16.40;;;6.65;;
75459;SDS011;64039;53.060;9.342;2022-12-18T04:30:55;13.40;;;6.05;;
75459;SDS011;64039;53.060;9.342;2022-12-18T04:33:21;15.70;;;6.43;;
75459;SDS011;64039;53.060;9.342;2022-12-18T04:35:47;12.50;;;6.50;;
75459;SDS011;64039;53.060;9.342;2022-12-18T04:38:12;15.02;;;6.00;;
75459;SDS011;64039;53.060;9.342;2022-12-18T04:40:38;14.77;;;7.18;;
75459;SDS011;64039;53.060;9.342;2022-12-18T04:43:04;16.20;;;6.57;;
75459;SDS011;64039;53.060;9.342;2022-12-18T04:45:30;14.93;;;6.63;;
75459;SDS011;64039;53.060;9.342;2022-12-18T04:47:59;15.80;;;6.35;;
75459;SDS011;64039;53.060;9.342;2022-12-18T04:50:26;15.48;;;6.55;;
75459;SDS011;64039;53.060;9.342;2022-12-18T04:52:52;16.25;;;6.15;;
75459;SDS011;64039;53.060;9.342;2022-12-18T04:55:18;15.55;;;6.75;;
75459;SDS011;64039;53.060;9.342;2022-12-18T04:57:43;13.68;;;6.30;;
75459;SDS011;64039;53.060;9.342;2022-12-18T05:00:09;13.98;;;6.95;;
75459;SDS011;64039;53.060;9.342;2022-12-18T05:02:35;13.23;;;6.55;;
75459;SDS011;64039;53.060;9.342;2022-12-18T05:05:01;15.15;;;6.55;;
75459;SDS011;64039;53.060;9.342;2022-12-18T05:07:26;14.27;;;5.93;;
75459;SDS011;64039;53.060;9.342;2022-12-18T05:09:51;10.50;;;5.80;;
75459;SDS011;64039;53.060;9.342;2022-12-18T05:12:17;12.63;;;5.88;;
75459;SDS011;64039;53.060;9.342;2022-12-18T05:14:42;11.52;;;6.38;;
75459;SDS011;64039;53.060;9.342;2022-12-18T05:17:08;13.38;;;6.97;;
75459;SDS011;64039;53.060;9.342;2022-12-18T05:19:33;15.23;;;6.72;;
75459;SDS011;64039;53.060;9.342;2022-12-18T05:21:59;12.00;;;6.53;;
75459;SDS011;64039;53.060;9.342;2022-12-18T05:24:24;12.85;;;6.20;;
75459;SDS011;64039;53.060;9.342;2022-12-18T05:26:50;17.33;;;6.35;;
75459;SDS011;64039;53.060;9.342;2022-12-18T05:29:15;13.52;;;6.05;;
75459;SDS011;64039;53.060;9.342;2022-12-18T05:31:41;17.10;;;6.47;;
75459;SDS011;64039;53.060;9.342;2022-12-18T05:34:06;11.55;;;5.75;;
75459;SDS011;64039;53.060;9.342;2022-12-18T05:36:32;13.77;;;6.78;;
75459;SDS011;64039;53.060;9.342;2022-12-18T05:38:58;14.35;;;6.53;;
75459;SDS011;64039;53.060;9.342;2022-12-18T05:41:25;15.07;;;6.35;;
75459;SDS011;64039;53.060;9.342;2022-12-18T05:43:50;13.63;;;6.45;;
75459;SDS011;64039;53.060;9.342;2022-12-18T05:46:16;15.70;;;6.30;;
75459;SDS011;64039;53.060;9.342;2022-12-18T05:48:43;14.20;;;6.18;;
75459;SDS011;64039;53.060;9.342;2022-12-18T05:51:10;15.88;;;6.25;;
75459;SDS011;64039;53.060;9.342;2022-12-18T05:53:39;14.23;;;6.50;;
75459;SDS011;64039;53.060;9.342;2022-12-18T05:56:06;13.63;;;6.20;;
75459;SDS011;64039;53.060;9.342;2022-12-18T05:58:33;14.25;;;6.30;;
75459;SDS011;64039;53.060;9.342;2022-12-18T06:01:05;13.60;;;5.63;;
75459;SDS011;64039;53.060;9.342;2022-12-18T06:03:33;15.20;;;6.97;;
75459;SDS011;64039;53.060;9.342;2022-12-18T06:05:58;12.50;;;6.03;;
75459;SDS011;64039;53.060;9.342;2022-12-18T06:08:24;12.38;;;5.40;;
75459;SDS011;64039;53.060;9.342;2022-12-18T06:10:50;14.40;;;5.97;;
75459;SDS011;64039;53.060;9.342;2022-12-18T06:13:17;10.90;;;5.13;;
75459;SDS011;64039;53.060;9.342;2022-12-18T06:15:42;12.02;;;6.05;;
75459;SDS011;64039;53.060;9.342;2022-12-18T06:18:08;12.25;;;6.18;;
75459;SDS011;64039;53.060;9.342;2022-12-18T06:20:33;12.25;;;5.95;;
75459;SDS011;64039;53.060;9.342;2022-12-18T06:23:01;14.35;;;5.80;;
75459;SDS011;64039;53.060;9.342;2022-12-18T06:25:27;11.90;;;5.75;;
75459;SDS011;64039;53.060;9.342;2022-12-18T06:27:52;13.13;;;5.93;;
75459;SDS011;64039;53.060;9.342;2022-12-18T06:30:18;16.55;;;6.50;;
75459;SDS011;64039;53.060;9.342;2022-12-18T06:32:43;12.32;;;5.90;;
75459;SDS011;64039;53.060;9.342;2022-12-18T06:35:09;13.75;;;6.80;;
75459;SDS011;64039;53.060;9.342;2022-12-18T06:37:35;13.23;;;6.18;;
75459;SDS011;64039;53.060;9.342;2022-12-18T06:40:01;10.88;;;6.22;;
75459;SDS011;64039;53.060;9.342;2022-12-18T06:42:26;12.93;;;6.05;;
75459;SDS011;64039;53.060;9.342;2022-12-18T06:44:53;14.25;;;6.43;;
75459;SDS011;64039;53.060;9.342;2022-12-18T06:47:19;13.20;;;6.32;;
75459;SDS011;64039;53.060;9.342;2022-12-18T06:49:44;17.77;;;8.05;;
75459;SDS011;64039;53.060;9.342;2022-12-18T06:55:01;16.33;;;8.63;;
75459;SDS011;64039;53.060;9.342;2022-12-18T06:57:26;17.55;;;8.93;;
75459;SDS011;64039;53.060;9.342;2022-12-18T06:59:52;19.30;;;8.40;;
75459;SDS011;64039;53.060;9.342;2022-12-18T07:02:17;16.80;;;9.05;;
75459;SDS011;64039;53.060;9.342;2022-12-18T07:04:43;17.85;;;8.63;;
75459;SDS011;64039;53.060;9.342;2022-12-18T07:07:08;18.05;;;8.15;;
75459;SDS011;64039;53.060;9.342;2022-12-18T07:09:34;15.95;;;7.90;;
75459;SDS011;64039;53.060;9.342;2022-12-18T07:11:59;19.20;;;8.73;;
75459;SDS011;64039;53.060;9.342;2022-12-18T07:14:25;17.88;;;6.90;;
75459;SDS011;64039;53.060;9.342;2022-12-18T07:16:50;14.13;;;6.60;;
75459;SDS011;64039;53.060;9.342;2022-12-18T07:19:16;15.15;;;6.50;;
75459;SDS011;64039;53.060;9.342;2022-12-18T07:21:41;14.13;;;6.30;;
75459;SDS011;64039;53.060;9.342;2022-12-18T07:24:07;11.32;;;5.80;;
75459;SDS011;64039;53.060;9.342;2022-12-18T07:26:32;13.80;;;6.13;;
75459;SDS011;64039;53.060;9.342;2022-12-18T07:28:58;15.40;;;6.10;;
75459;SDS011;64039;53.060;9.342;2022-12-18T07:31:23;12.38;;;5.72;;
75459;SDS011;64039;53.060;9.342;2022-12-18T07:33:50;11.48;;;5.68;;
75459;SDS011;64039;53.060;9.342;2022-12-18T07:36:16;12.27;;;5.70;;
75459;SDS011;64039;53.060;9.342;2022-12-18T07:38:42;16.80;;;6.13;;
75459;SDS011;64039;53.060;9.342;2022-12-18T07:41:12;14.52;;;6.32;;
75459;SDS011;64039;53.060;9.342;2022-12-18T07:43:38;11.02;;;5.70;;
75459;SDS011;64039;53.060;9.342;2022-12-18T07:46:05;13.15;;;6.15;;
75459;SDS011;64039;53.060;9.342;2022-12-18T07:48:31;13.82;;;6.72;;
75459;SDS011;64039;53.060;9.342;2022-12-18T07:51:03;16.40;;;6.63;;
75459;SDS011;64039;53.060;9.342;2022-12-18T07:53:31;16.52;;;6.72;;
75459;SDS011;64039;53.060;9.342;2022-12-18T07:55:58;14.07;;;5.90;;
75459;SDS011;64039;53.060;9.342;2022-12-18T07:58:25;14.82;;;5.90;;
75459;SDS011;64039;53.060;9.342;2022-12-18T08:00:51;12.73;;;6.45;;
75459;SDS011;64039;53.060;9.342;2022-12-18T08:03:17;19.48;;;7.25;;
75459;SDS011;64039;53.060;9.342;2022-12-18T08:05:43;12.07;;;6.10;;
75459;SDS011;64039;53.060;9.342;2022-12-18T08:08:09;16.67;;;7.07;;
75459;SDS011;64039;53.060;9.342;2022-12-18T08:10:35;13.25;;;5.60;;
75459;SDS011;64039;53.060;9.342;2022-12-18T08:13:00;13.60;;;5.38;;
75459;SDS011;64039;53.060;9.342;2022-12-18T08:15:26;12.00;;;5.82;;
75459;SDS011;64039;53.060;9.342;2022-12-18T08:17:51;12.13;;;5.82;;
75459;SDS011;64039;53.060;9.342;2022-12-18T08:20:17;13.55;;;6.18;;
75459;SDS011;64039;53.060;9.342;2022-12-18T08:22:43;14.02;;;6.30;;
75459;SDS011;64039;53.060;9.342;2022-12-18T08:25:09;16.75;;;7.00;;
75459;SDS011;64039;53.060;9.342;2022-12-18T08:27:35;17.10;;;7.00;;
75459;SDS011;64039;53.060;9.342;2022-12-18T08:30:00;10.65;;;5.38;;
75459;SDS011;64039;53.060;9.342;2022-12-18T08:32:27;13.15;;;5.95;;
75459;SDS011;64039;53.060;9.342;2022-12-18T08:34:53;12.55;;;6.25;;
75459;SDS011;64039;53.060;9.342;2022-12-18T08:37:18;13.88;;;6.63;;
75459;SDS011;64039;53.060;9.342;2022-12-18T08:39:44;13.65;;;6.45;;
75459;SDS011;64039;53.060;9.342;2022-12-18T08:42:09;13.05;;;6.07;;
75459;SDS011;64039;53.060;9.342;2022-12-18T08:44:53;13.00;;;6.30;;
75459;SDS011;64039;53.060;9.342;2022-12-18T08:47:20;12.88;;;5.88;;
75459;SDS011;64039;53.060;9.342;2022-12-18T08:49:46;12.15;;;5.60;;
75459;SDS011;64039;53.060;9.342;2022-12-18T08:52:11;12.65;;;6.07;;
75459;SDS011;64039;53.060;9.342;2022-12-18T08:54:37;14.65;;;6.60;;
75459;SDS011;64039;53.060;9.342;2022-12-18T08:57:02;13.32;;;6.05;;
75459;SDS011;64039;53.060;9.342;2022-12-18T08:59:27;11.35;;;5.40;;
75459;SDS011;64039;53.060;9.342;2022-12-18T09:01:53;11.73;;;5.50;;
75459;SDS011;64039;53.060;9.342;2022-12-18T09:04:19;14.70;;;5.65;;
75459;SDS011;64039;53.060;9.342;2022-12-18T09:06:44;13.40;;;5.45;;
75459;SDS011;64039;53.060;9.342;2022-12-18T09:09:10;11.75;;;5.63;;
75459;SDS011;64039;53.060;9.342;2022-12-18T09:11:36;13.73;;;6.07;;
75459;SDS011;64039;53.060;9.342;2022-12-18T09:14:02;10.18;;;5.07;;
75459;SDS011;64039;53.060;9.342;2022-12-18T09:16:28;11.20;;;5.43;;
75459;SDS011;64039;53.060;9.342;2022-12-18T09:18:54;10.43;;;5.43;;
75459;SDS011;64039;53.060;9.342;2022-12-18T09:21:24;12.65;;;5.68;;
75459;SDS011;64039;53.060;9.342;2022-12-18T09:23:52;11.60;;;5.53;;
75459;SDS011;64039;53.060;9.342;2022-12-18T09:26:19;12.25;;;5.28;;
75459;SDS011;64039;53.060;9.342;2022-12-18T09:28:45;13.52;;;5.32;;
75459;SDS011;64039;53.060;9.342;2022-12-18T09:31:11;21.80;;;8.73;;
75459;SDS011;64039;53.060;9.342;2022-12-18T09:33:38;22.08;;;7.85;;
75459;SDS011;64039;53.060;9.342;2022-12-18T09:36:04;13.65;;;5.88;;
75459;SDS011;64039;53.060;9.342;2022-12-18T09:38:32;12.75;;;5.80;;
75459;SDS011;64039;53.060;9.342;2022-12-18T09:40:59;11.60;;;5.80;;
75459;SDS011;64039;53.060;9.342;2022-12-18T09:43:37;12.95;;;5.90;;
75459;SDS011;64039;53.060;9.342;2022-12-18T09:46:31;11.27;;;5.70;;
75459;SDS011;64039;53.060;9.342;2022-12-18T09:49:01;10.68;;;5.20;;
75459;SDS011;64039;53.060;9.342;2022-12-18T09:51:39;11.32;;;5.30;;
75459;SDS011;64039;53.060;9.342;2022-12-18T09:54:31;14.82;;;5.03;;
75459;SDS011;64039;53.060;9.342;2022-12-18T09:57:00;13.00;;;5.45;;
75459;SDS011;64039;53.060;9.342;2022-12-18T09:59:29;9.93;;;5.15;;
75459;SDS011;64039;53.060;9.342;2022-12-18T10:01:58;13.68;;;5.65;;
75459;SDS011;64039;53.060;9.342;2022-12-18T10:04:24;14.38;;;5.57;;
75459;SDS011;64039;53.060;9.342;2022-12-18T10:07:07;12.65;;;5.05;;
75459;SDS011;64039;53.060;9.342;2022-12-18T10:10:26;11.15;;;5.65;;
75459;SDS011;64039;53.060;9.342;2022-12-18T10:15:19;11.70;;;5.25;;
75459;SDS011;64039;53.060;9.342;2022-12-18T10:20:38;9.88;;;4.80;;
75459;SDS011;64039;53.060;9.342;2022-12-18T10:25:57;10.77;;;5.57;;
75459;SDS011;64039;53.060;9.342;2022-12-18T10:28:29;11.63;;;5.50;;
75459;SDS011;64039;53.060;9.342;2022-12-18T10:30:57;9.63;;;4.85;;
75459;SDS011;64039;53.060;9.342;2022-12-18T10:33:24;12.30;;;5.00;;
75459;SDS011;64039;53.060;9.342;2022-12-18T10:35:53;10.23;;;4.93;;
75459;SDS011;64039;53.060;9.342;2022-12-18T10:38:26;9.93;;;5.13;;
75459;SDS011;64039;53.060;9.342;2022-12-18T10:44:09;10.88;;;5.30;;
75459;SDS011;64039;53.060;9.342;2022-12-18T10:49:01;12.07;;;5.25;;
75459;SDS011;64039;53.060;9.342;2022-12-18T10:54:02;12.27;;;5.40;;
75459;SDS011;64039;53.060;9.342;2022-12-18T10:56:31;10.82;;;5.25;;
75459;SDS011;64039;53.060;9.342;2022-12-18T10:59:06;10.88;;;5.20;;
75459;SDS011;64039;53.060;9.342;2022-12-18T11:01:52;11.13;;;5.47;;
75459;SDS011;64039;53.060;9.342;2022-12-18T11:04:30;14.27;;;5.32;;
75459;SDS011;64039;53.060;9.342;2022-12-18T11:09:23;11.93;;;5.57;;
75459;SDS011;64039;53.060;9.342;2022-12-18T11:11:58;11.75;;;4.90;;
75459;SDS011;64039;53.060;9.342;2022-12-18T11:16:59;10.38;;;5.20;;
75459;SDS011;64039;53.060;9.342;2022-12-18T11:19:33;12.35;;;5.63;;
75459;SDS011;64039;53.060;9.342;2022-12-18T11:22:03;8.85;;;4.40;;
75459;SDS011;64039;53.060;9.342;2022-12-18T11:24:49;9.40;;;5.13;;
75459;SDS011;64039;53.060;9.342;2022-12-18T11:27:20;10.65;;;5.13;;
75459;SDS011;64039;53.060;9.342;2022-12-18T11:29:46;11.57;;;5.18;;
75459;SDS011;64039;53.060;9.342;2022-12-18T11:32:24;11.52;;;5.03;;
75459;SDS011;64039;53.060;9.342;2022-12-18T11:35:42;9.45;;;5.20;;
75459;SDS011;64039;53.060;9.342;2022-12-18T11:38:26;10.85;;;5.20;;
75459;SDS011;64039;53.060;9.342;2022-12-18T11:43:31;10.48;;;5.00;;
75459;SDS011;64039;53.060;9.342;2022-12-18T11:46:10;10.02;;;4.93;;
75459;SDS011;64039;53.060;9.342;2022-12-18T11:48:43;10.52;;;4.93;;
75459;SDS011;64039;53.060;9.342;2022-12-18T11:51:21;12.77;;;4.97;;
75459;SDS011;64039;53.060;9.342;2022-12-18T11:53:55;10.50;;;5.00;;
75459;SDS011;64039;53.060;9.342;2022-12-18T11:56:32;11.32;;;4.68;;
75459;SDS011;64039;53.060;9.342;2022-12-18T12:18:13;11.32;;;5.70;;
75459;SDS011;64039;53.060;9.342;2022-12-18T12:21:11;7.90;;;5.00;;
75459;SDS011;64039;53.060;9.342;2022-12-18T12:26:33;9.50;;;4.85;;
75459;SDS011;64039;53.060;9.342;2022-12-18T12:29:29;9.63;;;4.80;;
75459;SDS011;64039;53.060;9.342;2022-12-18T12:37:20;10.38;;;5.00;;
75459;SDS011;64039;53.060;9.342;2022-12-18T12:40:06;12.55;;;4.63;;
75459;SDS011;64039;53.060;9.342;2022-12-18T12:42:34;10.05;;;4.80;;
75459;SDS011;64039;53.060;9.342;2022-12-18T12:45:26;8.00;;;4.68;;
75459;SDS011;64039;53.060;9.342;2022-12-18T12:48:00;10.13;;;4.60;;
75459;SDS011;64039;53.060;9.342;2022-12-18T12:50:28;9.88;;;4.60;;
75459;SDS011;64039;53.060;9.342;2022-12-18T12:52:59;10.07;;;4.70;;
75459;SDS011;64039;53.060;9.342;2022-12-18T12:55:31;7.60;;;4.15;;
75459;SDS011;64039;53.060;9.342;2022-12-18T12:58:21;9.00;;;4.53;;
75459;SDS011;64039;53.060;9.342;2022-12-18T13:01:28;10.07;;;4.80;;
75459;SDS011;64039;53.060;9.342;2022-12-18T13:04:15;10.07;;;4.10;;
75459;SDS011;64039;53.060;9.342;2022-12-18T13:09:29;7.70;;;4.35;;
75459;SDS011;64039;53.060;9.342;2022-12-18T13:12:02;8.98;;;4.57;;
75459;SDS011;64039;53.060;9.342;2022-12-18T13:14:54;9.40;;;4.80;;
75459;SDS011;64039;53.060;9.342;2022-12-18T13:20:24;9.65;;;3.97;;
75459;SDS011;64039;53.060;9.342;2022-12-18T13:22:59;9.18;;;4.00;;
75459;SDS011;64039;53.060;9.342;2022-12-18T13:25:33;8.23;;;4.35;;
75459;SDS011;64039;53.060;9.342;2022-12-18T13:28:03;8.27;;;4.43;;
75459;SDS011;64039;53.060;9.342;2022-12-18T13:34:11;9.75;;;4.50;;
75459;SDS011;64039;53.060;9.342;2022-12-18T13:38:34;9.27;;;3.95;;
75459;SDS011;64039;53.060;9.342;2022-12-18T13:41:02;7.60;;;3.67;;
75459;SDS011;64039;53.060;9.342;2022-12-18T13:43:46;6.65;;;3.03;;
75459;SDS011;64039;53.060;9.342;2022-12-18T13:46:29;6.68;;;3.60;;
75459;SDS011;64039;53.060;9.342;2022-12-18T13:51:39;6.90;;;3.42;;
75459;SDS011;64039;53.060;9.342;2022-12-18T13:56:51;7.22;;;3.33;;
75459;SDS011;64039;53.060;9.342;2022-12-18T14:01:45;7.78;;;3.05;;
75459;SDS011;64039;53.060;9.342;2022-12-18T14:04:30;5.70;;;2.90;;
75459;SDS011;64039;53.060;9.342;2022-12-18T14:06:58;4.75;;;2.92;;
75459;SDS011;64039;53.060;9.342;2022-12-18T14:09:29;6.25;;;2.90;;
75459;SDS011;64039;53.060;9.342;2022-12-18T14:11:59;6.45;;;2.50;;
75459;SDS011;64039;53.060;9.342;2022-12-18T14:14:45;4.47;;;2.22;;
75459;SDS011;64039;53.060;9.342;2022-12-18T14:17:14;5.22;;;2.50;;
75459;SDS011;64039;53.060;9.342;2022-12-18T14:19:41;5.65;;;2.75;;
75459;SDS011;64039;53.060;9.342;2022-12-18T14:24:51;6.60;;;2.78;;
75459;SDS011;64039;53.060;9.342;2022-12-18T14:27:45;5.78;;;2.45;;
75459;SDS011;64039;53.060;9.342;2022-12-18T14:30:31;4.68;;;2.45;;
75459;SDS011;64039;53.060;9.342;2022-12-18T14:33:19;6.72;;;2.97;;
75459;SDS011;64039;53.060;9.342;2022-12-18T14:38:40;9.70;;;3.80;;
75459;SDS011;64039;53.060;9.342;2022-12-18T14:43:38;5.63;;;2.95;;
75459;SDS011;64039;53.060;9.342;2022-12-18T14:46:05;7.07;;;3.00;;
75459;SDS011;64039;53.060;9.342;2022-12-18T14:48:50;9.43;;;3.83;;
75459;SDS011;64039;53.060;9.342;2022-12-18T14:51:20;9.55;;;4.13;;
75459;SDS011;64039;53.060;9.342;2022-12-18T14:54:01;8.38;;;3.88;;
75459;SDS011;64039;53.060;9.342;2022-12-18T14:58:59;8.70;;;4.47;;
75459;SDS011;64039;53.060;9.342;2022-12-18T15:03:59;9.60;;;4.07;;
75459;SDS011;64039;53.060;9.342;2022-12-18T15:06:30;11.18;;;5.00;;
75459;SDS011;64039;53.060;9.342;2022-12-18T15:08:59;9.68;;;4.18;;
75459;SDS011;64039;53.060;9.342;2022-12-18T15:16:49;8.90;;;4.20;;
75459;SDS011;64039;53.060;9.342;2022-12-18T15:19:16;10.85;;;4.85;;
75459;SDS011;64039;53.060;9.342;2022-12-18T15:21:42;9.48;;;4.40;;
75459;SDS011;64039;53.060;9.342;2022-12-18T15:24:18;10.15;;;4.47;;
75459;SDS011;64039;53.060;9.342;2022-12-18T15:26:49;8.90;;;4.72;;
75459;SDS011;64039;53.060;9.342;2022-12-18T15:29:19;9.68;;;4.97;;
75459;SDS011;64039;53.060;9.342;2022-12-18T15:32:19;9.48;;;5.00;;
75459;SDS011;64039;53.060;9.342;2022-12-18T15:34:44;10.30;;;4.53;;
75459;SDS011;64039;53.060;9.342;2022-12-18T15:37:09;10.38;;;4.65;;
75459;SDS011;64039;53.060;9.342;2022-12-18T15:39:35;11.65;;;5.32;;
75459;SDS011;64039;53.060;9.342;2022-12-18T15:42:01;9.60;;;4.80;;
75459;SDS011;64039;53.060;9.342;2022-12-18T15:44:45;9.80;;;4.75;;
75459;SDS011;64039;53.060;9.342;2022-12-18T15:47:11;10.32;;;5.03;;
75459;SDS011;64039;53.060;9.342;2022-12-18T15:49:38;12.27;;;5.40;;
75459;SDS011;64039;53.060;9.342;2022-12-18T15:52:04;11.30;;;5.47;;
75459;SDS011;64039;53.060;9.342;2022-12-18T15:54:30;11.88;;;5.55;;
75459;SDS011;64039;53.060;9.342;2022-12-18T15:57:14;11.57;;;5.22;;
75459;SDS011;64039;53.060;9.342;2022-12-18T15:59:49;11.18;;;5.95;;
75459;SDS011;64039;53.060;9.342;2022-12-18T16:02:19;11.70;;;5.88;;
75459;SDS011;64039;53.060;9.342;2022-12-18T16:04:45;13.15;;;5.97;;
75459;SDS011;64039;53.060;9.342;2022-12-18T16:07:13;15.70;;;6.00;;
75459;SDS011;64039;53.060;9.342;2022-12-18T16:09:39;14.18;;;6.25;;
75459;SDS011;64039;53.060;9.342;2022-12-18T16:12:05;14.00;;;6.57;;
75459;SDS011;64039;53.060;9.342;2022-12-18T16:14:34;12.68;;;6.10;;
75459;SDS011;64039;53.060;9.342;2022-12-18T16:17:01;14.32;;;5.97;;
75459;SDS011;64039;53.060;9.342;2022-12-18T16:19:28;13.57;;;6.07;;
75459;SDS011;64039;53.060;9.342;2022-12-18T16:21:55;17.08;;;6.82;;
75459;SDS011;64039;53.060;9.342;2022-12-18T16:24:25;16.02;;;6.68;;
75459;SDS011;64039;53.060;9.342;2022-12-18T16:26:53;14.07;;;6.82;;
75459;SDS011;64039;53.060;9.342;2022-12-18T16:29:19;15.75;;;6.63;;
75459;SDS011;64039;53.060;9.342;2022-12-18T16:32:00;13.90;;;6.75;;
75459;SDS011;64039;53.060;9.342;2022-12-18T16:34:26;13.82;;;6.40;;
75459;SDS011;64039;53.060;9.342;2022-12-18T16:36:55;13.93;;;6.55;;
75459;SDS011;64039;53.060;9.342;2022-12-18T16:39:21;16.35;;;7.15;;
75459;SDS011;64039;53.060;9.342;2022-12-18T16:41:47;16.45;;;6.70;;
75459;SDS011;64039;53.060;9.342;2022-12-18T16:44:13;14.77;;;6.97;;
75459;SDS011;64039;53.060;9.342;2022-12-18T16:46:39;16.55;;;6.53;;
75459;SDS011;64039;53.060;9.342;2022-12-18T16:49:08;15.43;;;7.38;;
75459;SDS011;64039;53.060;9.342;2022-12-18T16:51:33;17.42;;;7.38;;
75459;SDS011;64039;53.060;9.342;2022-12-18T16:53:59;41.28;;;8.73;;
75459;SDS011;64039;53.060;9.342;2022-12-18T16:56:25;17.02;;;7.30;;
75459;SDS011;64039;53.060;9.342;2022-12-18T16:58:51;16.88;;;7.90;;